West Bend, Iowa
Current Conditions -  °F | °C
As of 6:35 AM on Saturday 01 Nov 2014 (Local Time) from KAXA Reporting Station
Clear Clear  
Wind Chill: 17°   Ceiling: Unl
Heat Index: 27°   Visibility: 10mi
Dew Point: 19°   Wind: 9mph
Humidity: 74%   Direction: 160°SSE
Pressure: 30.44"   Gusts: NA
Location:  42.96°N, 94.45°W
Report Text: KAXA 011135Z AUTO 16008KT 10SM CLR M03/M07 A3044 RMK AO2
Loading
Personal Weather Stations






























Interactive Weather Map
Tropical Storm Tracking
New forecast layout! Learn more

10-Day Weather Forecast

Advertisements
Track Severe Weather on mobile